sensor_id;sensor_type;location;lat;lon;timestamp;P1;durP1;ratioP1;P2;durP2;ratioP2
69714;SDS011;56981;53.532;49.398;2022-09-09T00:03:43;2.28;;;1.40;;
69714;SDS011;56981;53.532;49.398;2022-09-09T00:06:21;1.85;;;1.60;;
69714;SDS011;56981;53.532;49.398;2022-09-09T00:11:51;2.25;;;1.63;;
69714;SDS011;56981;53.532;49.398;2022-09-09T00:17:56;1.90;;;1.80;;
69714;SDS011;56981;53.532;49.398;2022-09-09T00:20:16;2.03;;;1.83;;
69714;SDS011;56981;53.532;49.398;2022-09-09T00:22:57;2.38;;;1.60;;
69714;SDS011;56981;53.532;49.398;2022-09-09T00:29:18;2.90;;;1.90;;
69714;SDS011;56981;53.532;49.398;2022-09-09T00:31:33;1.83;;;1.58;;
69714;SDS011;56981;53.532;49.398;2022-09-09T00:34:10;3.28;;;1.92;;
69714;SDS011;56981;53.532;49.398;2022-09-09T00:36:48;2.45;;;1.90;;
69714;SDS011;56981;53.532;49.398;2022-09-09T00:45:34;2.60;;;1.70;;
69714;SDS011;56981;53.532;49.398;2022-09-09T00:48:06;2.28;;;1.92;;
69714;SDS011;56981;53.532;49.398;2022-09-09T00:50:39;3.17;;;2.00;;
69714;SDS011;56981;53.532;49.398;2022-09-09T00:53:27;2.17;;;1.85;;
69714;SDS011;56981;53.532;49.398;2022-09-09T00:58:37;2.13;;;1.75;;
69714;SDS011;56981;53.532;49.398;2022-09-09T01:01:10;3.17;;;2.05;;
69714;SDS011;56981;53.532;49.398;2022-09-09T01:03:40;2.10;;;1.90;;
69714;SDS011;56981;53.532;49.398;2022-09-09T01:11:23;2.30;;;1.67;;
69714;SDS011;56981;53.532;49.398;2022-09-09T01:14:47;2.70;;;1.80;;
69714;SDS011;56981;53.532;49.398;2022-09-09T01:16:46;2.17;;;1.73;;
69714;SDS011;56981;53.532;49.398;2022-09-09T01:19:18;3.08;;;2.42;;
69714;SDS011;56981;53.532;49.398;2022-09-09T01:22:03;4.20;;;2.20;;
69714;SDS011;56981;53.532;49.398;2022-09-09T01:24:42;3.42;;;2.00;;
69714;SDS011;56981;53.532;49.398;2022-09-09T01:27:21;2.45;;;1.58;;
69714;SDS011;56981;53.532;49.398;2022-09-09T01:29:48;2.70;;;1.80;;
69714;SDS011;56981;53.532;49.398;2022-09-09T01:38:04;3.40;;;2.20;;
69714;SDS011;56981;53.532;49.398;2022-09-09T01:40:31;3.47;;;2.00;;
69714;SDS011;56981;53.532;49.398;2022-09-09T01:42:57;2.92;;;2.03;;
69714;SDS011;56981;53.532;49.398;2022-09-09T01:45:24;3.05;;;2.05;;
69714;SDS011;56981;53.532;49.398;2022-09-09T01:47:51;1.90;;;1.80;;
69714;SDS011;56981;53.532;49.398;2022-09-09T01:50:19;2.22;;;1.77;;
69714;SDS011;56981;53.532;49.398;2022-09-09T01:52:46;3.15;;;2.10;;
69714;SDS011;56981;53.532;49.398;2022-09-09T01:55:15;3.85;;;2.22;;
69714;SDS011;56981;53.532;49.398;2022-09-09T01:57:50;4.40;;;2.30;;
69714;SDS011;56981;53.532;49.398;2022-09-09T02:00:24;2.80;;;2.08;;
69714;SDS011;56981;53.532;49.398;2022-09-09T02:05:40;4.20;;;2.60;;
69714;SDS011;56981;53.532;49.398;2022-09-09T02:08:10;2.92;;;2.17;;
69714;SDS011;56981;53.532;49.398;2022-09-09T02:10:44;4.15;;;2.60;;
69714;SDS011;56981;53.532;49.398;2022-09-09T02:13:21;3.53;;;2.40;;
69714;SDS011;56981;53.532;49.398;2022-09-09T02:18:27;4.07;;;2.40;;
69714;SDS011;56981;53.532;49.398;2022-09-09T02:21:04;3.88;;;2.45;;
69714;SDS011;56981;53.532;49.398;2022-09-09T02:23:32;3.25;;;2.40;;
69714;SDS011;56981;53.532;49.398;2022-09-09T02:26:00;3.90;;;2.25;;
69714;SDS011;56981;53.532;49.398;2022-09-09T02:28:28;3.53;;;2.28;;
69714;SDS011;56981;53.532;49.398;2022-09-09T02:30:57;2.95;;;2.28;;
69714;SDS011;56981;53.532;49.398;2022-09-09T02:33:25;9.80;;;8.20;;
69714;SDS011;56981;53.532;49.398;2022-09-09T02:35:53;5.60;;;3.80;;
69714;SDS011;56981;53.532;49.398;2022-09-09T02:38:27;8.18;;;6.47;;
69714;SDS011;56981;53.532;49.398;2022-09-09T02:40:57;6.32;;;4.63;;
69714;SDS011;56981;53.532;49.398;2022-09-09T02:43:24;3.13;;;2.60;;
69714;SDS011;56981;53.532;49.398;2022-09-09T02:56:44;3.97;;;2.30;;
69714;SDS011;56981;53.532;49.398;2022-09-09T02:59:16;3.00;;;2.40;;
69714;SDS011;56981;53.532;49.398;2022-09-09T03:01:42;2.95;;;2.00;;
69714;SDS011;56981;53.532;49.398;2022-09-09T03:04:09;3.42;;;2.00;;
69714;SDS011;56981;53.532;49.398;2022-09-09T03:06:35;3.55;;;2.45;;
69714;SDS011;56981;53.532;49.398;2022-09-09T03:09:01;4.80;;;2.85;;
69714;SDS011;56981;53.532;49.398;2022-09-09T03:11:28;4.68;;;2.60;;
69714;SDS011;56981;53.532;49.398;2022-09-09T03:13:54;4.07;;;2.55;;
69714;SDS011;56981;53.532;49.398;2022-09-09T03:16:24;3.80;;;2.65;;
69714;SDS011;56981;53.532;49.398;2022-09-09T03:18:50;3.38;;;2.20;;
69714;SDS011;56981;53.532;49.398;2022-09-09T03:21:17;5.22;;;3.00;;
69714;SDS011;56981;53.532;49.398;2022-09-09T03:23:43;3.60;;;2.63;;
69714;SDS011;56981;53.532;49.398;2022-09-09T03:26:10;3.80;;;2.13;;
69714;SDS011;56981;53.532;49.398;2022-09-09T03:28:36;4.03;;;2.80;;
69714;SDS011;56981;53.532;49.398;2022-09-09T03:31:03;5.95;;;3.05;;
69714;SDS011;56981;53.532;49.398;2022-09-09T03:33:37;6.28;;;2.90;;
69714;SDS011;56981;53.532;49.398;2022-09-09T03:36:03;4.93;;;2.80;;
69714;SDS011;56981;53.532;49.398;2022-09-09T03:38:30;5.50;;;2.85;;
69714;SDS011;56981;53.532;49.398;2022-09-09T03:40:57;5.30;;;3.28;;
69714;SDS011;56981;53.532;49.398;2022-09-09T03:43:24;5.25;;;3.42;;
69714;SDS011;56981;53.532;49.398;2022-09-09T03:45:51;5.63;;;3.55;;
69714;SDS011;56981;53.532;49.398;2022-09-09T03:48:18;8.48;;;4.68;;
69714;SDS011;56981;53.532;49.398;2022-09-09T03:50:45;6.68;;;3.83;;
69714;SDS011;56981;53.532;49.398;2022-09-09T03:53:11;8.25;;;4.03;;
69714;SDS011;56981;53.532;49.398;2022-09-09T03:55:38;5.50;;;3.50;;
69714;SDS011;56981;53.532;49.398;2022-09-09T03:58:04;7.10;;;3.72;;
69714;SDS011;56981;53.532;49.398;2022-09-09T04:00:30;6.65;;;3.45;;
69714;SDS011;56981;53.532;49.398;2022-09-09T04:02:56;6.32;;;3.63;;
69714;SDS011;56981;53.532;49.398;2022-09-09T04:05:23;4.63;;;3.75;;
69714;SDS011;56981;53.532;49.398;2022-09-09T04:07:49;4.85;;;3.35;;
69714;SDS011;56981;53.532;49.398;2022-09-09T04:10:16;7.72;;;3.92;;
69714;SDS011;56981;53.532;49.398;2022-09-09T04:12:42;6.82;;;3.70;;
69714;SDS011;56981;53.532;49.398;2022-09-09T04:15:09;6.32;;;3.90;;
69714;SDS011;56981;53.532;49.398;2022-09-09T04:17:35;6.50;;;3.10;;
69714;SDS011;56981;53.532;49.398;2022-09-09T04:20:02;5.05;;;3.33;;
69714;SDS011;56981;53.532;49.398;2022-09-09T04:22:28;5.82;;;3.63;;
69714;SDS011;56981;53.532;49.398;2022-09-09T04:24:54;6.93;;;3.50;;
69714;SDS011;56981;53.532;49.398;2022-09-09T04:27:20;4.43;;;3.03;;
69714;SDS011;56981;53.532;49.398;2022-09-09T04:29:46;4.20;;;3.30;;
69714;SDS011;56981;53.532;49.398;2022-09-09T04:32:12;6.53;;;3.47;;
69714;SDS011;56981;53.532;49.398;2022-09-09T04:34:38;4.38;;;2.88;;
69714;SDS011;56981;53.532;49.398;2022-09-09T04:37:06;6.32;;;3.22;;
69714;SDS011;56981;53.532;49.398;2022-09-09T04:39:33;4.22;;;3.00;;
69714;SDS011;56981;53.532;49.398;2022-09-09T04:41:59;3.28;;;2.42;;
69714;SDS011;56981;53.532;49.398;2022-09-09T04:44:25;4.22;;;2.90;;
69714;SDS011;56981;53.532;49.398;2022-09-09T04:46:51;4.57;;;3.20;;
69714;SDS011;56981;53.532;49.398;2022-09-09T04:49:18;4.70;;;3.25;;
69714;SDS011;56981;53.532;49.398;2022-09-09T04:51:44;4.32;;;2.60;;
69714;SDS011;56981;53.532;49.398;2022-09-09T04:54:11;4.13;;;2.67;;
69714;SDS011;56981;53.532;49.398;2022-09-09T04:56:37;3.90;;;3.03;;
69714;SDS011;56981;53.532;49.398;2022-09-09T04:59:03;3.30;;;2.58;;
69714;SDS011;56981;53.532;49.398;2022-09-09T05:01:29;3.70;;;2.33;;
69714;SDS011;56981;53.532;49.398;2022-09-09T05:03:55;3.50;;;2.60;;
69714;SDS011;56981;53.532;49.398;2022-09-09T05:06:22;4.35;;;2.40;;
69714;SDS011;56981;53.532;49.398;2022-09-09T05:08:48;5.20;;;2.45;;
69714;SDS011;56981;53.532;49.398;2022-09-09T05:11:24;4.00;;;2.00;;
69714;SDS011;56981;53.532;49.398;2022-09-09T05:13:52;2.15;;;1.95;;
69714;SDS011;56981;53.532;49.398;2022-09-09T05:16:19;2.30;;;2.05;;
69714;SDS011;56981;53.532;49.398;2022-09-09T05:18:46;2.63;;;2.28;;
69714;SDS011;56981;53.532;49.398;2022-09-09T05:21:13;2.25;;;2.05;;
69714;SDS011;56981;53.532;49.398;2022-09-09T05:23:40;4.72;;;2.75;;
69714;SDS011;56981;53.532;49.398;2022-09-09T05:26:08;3.10;;;2.08;;
69714;SDS011;56981;53.532;49.398;2022-09-09T05:28:37;4.15;;;2.20;;
69714;SDS011;56981;53.532;49.398;2022-09-09T05:31:04;2.78;;;2.50;;
69714;SDS011;56981;53.532;49.398;2022-09-09T05:33:38;3.80;;;2.58;;
69714;SDS011;56981;53.532;49.398;2022-09-09T05:36:07;6.88;;;2.13;;
69714;SDS011;56981;53.532;49.398;2022-09-09T05:38:36;1.85;;;1.75;;
69714;SDS011;56981;53.532;49.398;2022-09-09T05:41:03;2.92;;;1.95;;
69714;SDS011;56981;53.532;49.398;2022-09-09T05:43:29;1.80;;;1.70;;
69714;SDS011;56981;53.532;49.398;2022-09-09T05:48:33;1.92;;;1.30;;
69714;SDS011;56981;53.532;49.398;2022-09-09T05:51:12;1.45;;;1.35;;
69714;SDS011;56981;53.532;49.398;2022-09-09T05:53:43;1.20;;;1.10;;
69714;SDS011;56981;53.532;49.398;2022-09-09T05:56:11;1.77;;;1.40;;
69714;SDS011;56981;53.532;49.398;2022-09-09T05:58:42;2.42;;;1.35;;
69714;SDS011;56981;53.532;49.398;2022-09-09T06:01:10;3.30;;;1.33;;
69714;SDS011;56981;53.532;49.398;2022-09-09T06:03:38;2.83;;;1.65;;
69714;SDS011;56981;53.532;49.398;2022-09-09T06:06:12;2.80;;;1.67;;
69714;SDS011;56981;53.532;49.398;2022-09-09T06:08:41;1.60;;;1.30;;
69714;SDS011;56981;53.532;49.398;2022-09-09T06:11:10;1.65;;;1.55;;
69714;SDS011;56981;53.532;49.398;2022-09-09T06:13:41;1.77;;;1.50;;
69714;SDS011;56981;53.532;49.398;2022-09-09T06:16:08;1.88;;;1.75;;
69714;SDS011;56981;53.532;49.398;2022-09-09T06:18:40;3.47;;;1.40;;
69714;SDS011;56981;53.532;49.398;2022-09-09T06:21:08;3.13;;;1.30;;
69714;SDS011;56981;53.532;49.398;2022-09-09T06:23:36;1.50;;;1.40;;
69714;SDS011;56981;53.532;49.398;2022-09-09T06:26:07;1.73;;;0.85;;
69714;SDS011;56981;53.532;49.398;2022-09-09T06:28:36;3.33;;;1.30;;
69714;SDS011;56981;53.532;49.398;2022-09-09T06:31:06;1.58;;;0.90;;
69714;SDS011;56981;53.532;49.398;2022-09-09T06:33:36;1.02;;;0.93;;
69714;SDS011;56981;53.532;49.398;2022-09-09T06:36:13;2.65;;;1.52;;
69714;SDS011;56981;53.532;49.398;2022-09-09T06:38:41;3.88;;;1.55;;
69714;SDS011;56981;53.532;49.398;2022-09-09T06:41:08;1.25;;;1.02;;
69714;SDS011;56981;53.532;49.398;2022-09-09T06:43:35;0.93;;;0.82;;
69714;SDS011;56981;53.532;49.398;2022-09-09T06:46:23;1.15;;;1.05;;
69714;SDS011;56981;53.532;49.398;2022-09-09T06:48:49;16.13;;;6.72;;
69714;SDS011;56981;53.532;49.398;2022-09-09T06:51:19;1.75;;;1.10;;
69714;SDS011;56981;53.532;49.398;2022-09-09T06:53:50;1.70;;;0.90;;
69714;SDS011;56981;53.532;49.398;2022-09-09T06:56:50;0.82;;;0.68;;
69714;SDS011;56981;53.532;49.398;2022-09-09T06:59:11;0.75;;;0.50;;
69714;SDS011;56981;53.532;49.398;2022-09-09T07:01:43;0.80;;;0.70;;
69714;SDS011;56981;53.532;49.398;2022-09-09T07:04:09;0.85;;;0.70;;
69714;SDS011;56981;53.532;49.398;2022-09-09T07:06:37;1.13;;;0.80;;
69714;SDS011;56981;53.532;49.398;2022-09-09T07:09:09;1.33;;;0.75;;
69714;SDS011;56981;53.532;49.398;2022-09-09T07:11:39;1.23;;;0.90;;
69714;SDS011;56981;53.532;49.398;2022-09-09T07:14:09;1.55;;;0.77;;
69714;SDS011;56981;53.532;49.398;2022-09-09T07:16:41;1.52;;;1.42;;
69714;SDS011;56981;53.532;49.398;2022-09-09T07:19:07;2.58;;;0.93;;
69714;SDS011;56981;53.532;49.398;2022-09-09T07:21:34;1.10;;;1.00;;
69714;SDS011;56981;53.532;49.398;2022-09-09T07:24:00;1.35;;;0.93;;
69714;SDS011;56981;53.532;49.398;2022-09-09T07:26:28;2.75;;;1.30;;
69714;SDS011;56981;53.532;49.398;2022-09-09T07:28:55;1.13;;;0.90;;
69714;SDS011;56981;53.532;49.398;2022-09-09T07:31:27;3.80;;;0.90;;
69714;SDS011;56981;53.532;49.398;2022-09-09T07:33:56;2.17;;;1.10;;
69714;SDS011;56981;53.532;49.398;2022-09-09T07:36:26;2.90;;;1.30;;
69714;SDS011;56981;53.532;49.398;2022-09-09T07:38:55;1.60;;;1.13;;
69714;SDS011;56981;53.532;49.398;2022-09-09T07:41:25;0.77;;;0.73;;
69714;SDS011;56981;53.532;49.398;2022-09-09T07:43:59;1.23;;;0.93;;
69714;SDS011;56981;53.532;49.398;2022-09-09T07:46:29;1.00;;;0.90;;
69714;SDS011;56981;53.532;49.398;2022-09-09T07:48:56;1.08;;;0.98;;
69714;SDS011;56981;53.532;49.398;2022-09-09T07:51:31;1.00;;;0.90;;
69714;SDS011;56981;53.532;49.398;2022-09-09T07:54:00;2.25;;;0.90;;
69714;SDS011;56981;53.532;49.398;2022-09-09T07:56:29;2.35;;;1.00;;
69714;SDS011;56981;53.532;49.398;2022-09-09T07:58:55;0.98;;;0.98;;
69714;SDS011;56981;53.532;49.398;2022-09-09T08:01:23;0.88;;;0.80;;
69714;SDS011;56981;53.532;49.398;2022-09-09T08:03:56;0.85;;;0.85;;
69714;SDS011;56981;53.532;49.398;2022-09-09T08:06:27;0.93;;;0.90;;
69714;SDS011;56981;53.532;49.398;2022-09-09T08:09:03;1.67;;;0.98;;
69714;SDS011;56981;53.532;49.398;2022-09-09T08:11:30;3.47;;;1.55;;
69714;SDS011;56981;53.532;49.398;2022-09-09T08:13:58;1.00;;;0.80;;
69714;SDS011;56981;53.532;49.398;2022-09-09T08:16:26;0.60;;;0.60;;
69714;SDS011;56981;53.532;49.398;2022-09-09T08:18:53;1.75;;;0.45;;
69714;SDS011;56981;53.532;49.398;2022-09-09T08:21:23;0.50;;;0.50;;
69714;SDS011;56981;53.532;49.398;2022-09-09T08:23:53;0.65;;;0.60;;
69714;SDS011;56981;53.532;49.398;2022-09-09T08:26:22;1.52;;;1.40;;
69714;SDS011;56981;53.532;49.398;2022-09-09T08:28:50;0.90;;;0.75;;
69714;SDS011;56981;53.532;49.398;2022-09-09T08:33:48;0.70;;;0.70;;
69714;SDS011;56981;53.532;49.398;2022-09-09T08:36:16;0.98;;;0.82;;
69714;SDS011;56981;53.532;49.398;2022-09-09T08:38:43;0.70;;;0.70;;
69714;SDS011;56981;53.532;49.398;2022-09-09T08:44:41;1.23;;;0.82;;
69714;SDS011;56981;53.532;49.398;2022-09-09T08:50:48;1.08;;;1.00;;
69714;SDS011;56981;53.532;49.398;2022-09-09T08:53:17;1.02;;;0.45;;
69714;SDS011;56981;53.532;49.398;2022-09-09T08:55:47;0.70;;;0.50;;
69714;SDS011;56981;53.532;49.398;2022-09-09T09:08:46;2.17;;;0.47;;
69714;SDS011;56981;53.532;49.398;2022-09-09T09:11:25;0.47;;;0.30;;
69714;SDS011;56981;53.532;49.398;2022-09-09T09:13:55;0.38;;;0.30;;
69714;SDS011;56981;53.532;49.398;2022-09-09T09:16:38;0.30;;;0.30;;
69714;SDS011;56981;53.532;49.398;2022-09-09T09:19:13;0.45;;;0.20;;
69714;SDS011;56981;53.532;49.398;2022-09-09T09:21:44;0.25;;;0.25;;
69714;SDS011;56981;53.532;49.398;2022-09-09T09:27:01;0.95;;;0.47;;
69714;SDS011;56981;53.532;49.398;2022-09-09T09:29:54;0.90;;;0.52;;
69714;SDS011;56981;53.532;49.398;2022-09-09T09:32:23;0.70;;;0.40;;
69714;SDS011;56981;53.532;49.398;2022-09-09T09:34:53;2.67;;;0.40;;
69714;SDS011;56981;53.532;49.398;2022-09-09T09:37:27;0.40;;;0.40;;
69714;SDS011;56981;53.532;49.398;2022-09-09T09:39:55;0.85;;;0.45;;
69714;SDS011;56981;53.532;49.398;2022-09-09T09:42:21;2.72;;;0.57;;
69714;SDS011;56981;53.532;49.398;2022-09-09T09:44:48;0.60;;;0.40;;
69714;SDS011;56981;53.532;49.398;2022-09-09T09:47:15;0.95;;;0.38;;
69714;SDS011;56981;53.532;49.398;2022-09-09T09:49:55;1.42;;;0.70;;
69714;SDS011;56981;53.532;49.398;2022-09-09T09:52:28;2.78;;;1.27;;
69714;SDS011;56981;53.532;49.398;2022-09-09T09:54:56;0.80;;;0.80;;
69714;SDS011;56981;53.532;49.398;2022-09-09T09:57:28;0.98;;;0.47;;
69714;SDS011;56981;53.532;49.398;2022-09-09T10:00:00;1.67;;;1.00;;
69714;SDS011;56981;53.532;49.398;2022-09-09T10:02:47;2.30;;;1.02;;
69714;SDS011;56981;53.532;49.398;2022-09-09T10:08:01;2.95;;;0.90;;
69714;SDS011;56981;53.532;49.398;2022-09-09T10:24:53;1.65;;;0.57;;
69714;SDS011;56981;53.532;49.398;2022-09-09T10:30:21;0.50;;;0.38;;
69714;SDS011;56981;53.532;49.398;2022-09-09T10:33:10;0.40;;;0.40;;
69714;SDS011;56981;53.532;49.398;2022-09-09T10:38:41;0.77;;;0.55;;
69714;SDS011;56981;53.532;49.398;2022-09-09T10:41:13;0.43;;;0.30;;
69714;SDS011;56981;53.532;49.398;2022-09-09T10:46:45;1.77;;;0.60;;
69714;SDS011;56981;53.532;49.398;2022-09-09T10:57:08;0.85;;;0.50;;
69714;SDS011;56981;53.532;49.398;2022-09-09T10:59:48;1.00;;;0.43;;
69714;SDS011;56981;53.532;49.398;2022-09-09T11:02:27;0.73;;;0.52;;
69714;SDS011;56981;53.532;49.398;2022-09-09T11:04:58;3.38;;;0.50;;
69714;SDS011;56981;53.532;49.398;2022-09-09T11:07:47;1.73;;;0.50;;
69714;SDS011;56981;53.532;49.398;2022-09-09T11:10:23;0.70;;;0.60;;
69714;SDS011;56981;53.532;49.398;2022-09-09T11:13:05;0.57;;;0.47;;
69714;SDS011;56981;53.532;49.398;2022-09-09T11:15:42;0.40;;;0.40;;
69714;SDS011;56981;53.532;49.398;2022-09-09T11:18:11;0.65;;;0.40;;
69714;SDS011;56981;53.532;49.398;2022-09-09T11:20:44;0.47;;;0.47;;
69714;SDS011;56981;53.532;49.398;2022-09-09T11:23:13;0.65;;;0.40;;
69714;SDS011;56981;53.532;49.398;2022-09-09T11:25:48;0.65;;;0.43;;
69714;SDS011;56981;53.532;49.398;2022-09-09T11:31:43;0.65;;;0.50;;
69714;SDS011;56981;53.532;49.398;2022-09-09T11:34:09;0.50;;;0.50;;
69714;SDS011;56981;53.532;49.398;2022-09-09T11:40:00;1.67;;;0.55;;
69714;SDS011;56981;53.532;49.398;2022-09-09T11:42:33;0.40;;;0.40;;
69714;SDS011;56981;53.532;49.398;2022-09-09T11:45:10;1.00;;;0.50;;
69714;SDS011;56981;53.532;49.398;2022-09-09T11:47:52;0.57;;;0.57;;
69714;SDS011;56981;53.532;49.398;2022-09-09T11:52:46;0.30;;;0.30;;
69714;SDS011;56981;53.532;49.398;2022-09-09T11:58:04;0.65;;;0.60;;
69714;SDS011;56981;53.532;49.398;2022-09-09T12:06:32;0.82;;;0.50;;
69714;SDS011;56981;53.532;49.398;2022-09-09T12:09:12;0.70;;;0.70;;
69714;SDS011;56981;53.532;49.398;2022-09-09T12:12:20;2.60;;;0.30;;
69714;SDS011;56981;53.532;49.398;2022-09-09T12:14:56;0.30;;;0.30;;
69714;SDS011;56981;53.532;49.398;2022-09-09T12:17:25;0.40;;;0.40;;
69714;SDS011;56981;53.532;49.398;2022-09-09T12:31:27;0.70;;;0.57;;
69714;SDS011;56981;53.532;49.398;2022-09-09T12:34:46;0.82;;;0.43;;
69714;SDS011;56981;53.532;49.398;2022-09-09T12:42:50;1.10;;;0.70;;
69714;SDS011;56981;53.532;49.398;2022-09-09T12:45:20;0.80;;;0.80;;
69714;SDS011;56981;53.532;49.398;2022-09-09T12:47:53;1.73;;;0.63;;
69714;SDS011;56981;53.532;49.398;2022-09-09T12:50:23;0.93;;;0.60;;
69714;SDS011;56981;53.532;49.398;2022-09-09T12:52:52;0.63;;;0.52;;
69714;SDS011;56981;53.532;49.398;2022-09-09T12:55:24;1.20;;;1.10;;
69714;SDS011;56981;53.532;49.398;2022-09-09T12:57:55;0.50;;;0.50;;
69714;SDS011;56981;53.532;49.398;2022-09-09T13:00:24;1.05;;;0.50;;
69714;SDS011;56981;53.532;49.398;2022-09-09T13:02:55;1.80;;;0.80;;
69714;SDS011;56981;53.532;49.398;2022-09-09T13:05:34;0.82;;;0.60;;
69714;SDS011;56981;53.532;49.398;2022-09-09T13:08:06;1.27;;;0.77;;
69714;SDS011;56981;53.532;49.398;2022-09-09T13:10:37;1.15;;;0.73;;
69714;SDS011;56981;53.532;49.398;2022-09-09T13:13:19;3.42;;;1.10;;
69714;SDS011;56981;53.532;49.398;2022-09-09T13:15:48;3.15;;;1.10;;
69714;SDS011;56981;53.532;49.398;2022-09-09T13:18:21;2.75;;;1.10;;
69714;SDS011;56981;53.532;49.398;2022-09-09T13:20:53;1.40;;;0.90;;
69714;SDS011;56981;53.532;49.398;2022-09-09T13:23:19;0.47;;;0.47;;
69714;SDS011;56981;53.532;49.398;2022-09-09T13:25:55;0.30;;;0.30;;
69714;SDS011;56981;53.532;49.398;2022-09-09T13:28:24;1.55;;;0.57;;
69714;SDS011;56981;53.532;49.398;2022-09-09T13:31:01;1.50;;;0.60;;
69714;SDS011;56981;53.532;49.398;2022-09-09T13:33:30;1.70;;;0.60;;
69714;SDS011;56981;53.532;49.398;2022-09-09T13:36:03;1.30;;;0.82;;
69714;SDS011;56981;53.532;49.398;2022-09-09T13:38:36;1.33;;;1.20;;
69714;SDS011;56981;53.532;49.398;2022-09-09T13:41:04;1.30;;;1.00;;
69714;SDS011;56981;53.532;49.398;2022-09-09T13:43:45;1.73;;;1.00;;
69714;SDS011;56981;53.532;49.398;2022-09-09T13:51:37;2.20;;;0.68;;
69714;SDS011;56981;53.532;49.398;2022-09-09T13:54:08;2.88;;;0.80;;
69714;SDS011;56981;53.532;49.398;2022-09-09T13:56:36;4.18;;;0.70;;
69714;SDS011;56981;53.532;49.398;2022-09-09T13:59:04;1.50;;;0.80;;
69714;SDS011;56981;53.532;49.398;2022-09-09T14:01:34;1.63;;;0.80;;
69714;SDS011;56981;53.532;49.398;2022-09-09T14:04:00;1.17;;;0.50;;
69714;SDS011;56981;53.532;49.398;2022-09-09T14:06:26;1.65;;;0.77;;
69714;SDS011;56981;53.532;49.398;2022-09-09T14:08:52;1.33;;;0.80;;
69714;SDS011;56981;53.532;49.398;2022-09-09T14:11:20;1.92;;;0.70;;
69714;SDS011;56981;53.532;49.398;2022-09-09T14:13:47;1.50;;;0.70;;
69714;SDS011;56981;53.532;49.398;2022-09-09T14:16:18;3.60;;;0.65;;
69714;SDS011;56981;53.532;49.398;2022-09-09T14:18:44;2.15;;;0.80;;
69714;SDS011;56981;53.532;49.398;2022-09-09T14:21:11;2.17;;;1.23;;
69714;SDS011;56981;53.532;49.398;2022-09-09T14:23:38;1.45;;;0.90;;
69714;SDS011;56981;53.532;49.398;2022-09-09T14:26:07;8.68;;;4.00;;
69714;SDS011;56981;53.532;49.398;2022-09-09T14:28:34;0.82;;;0.63;;
69714;SDS011;56981;53.532;49.398;2022-09-09T14:31:01;1.85;;;0.95;;
69714;SDS011;56981;53.532;49.398;2022-09-09T14:33:29;1.63;;;0.60;;
69714;SDS011;56981;53.532;49.398;2022-09-09T14:35:58;0.80;;;0.47;;
69714;SDS011;56981;53.532;49.398;2022-09-09T14:38:28;2.58;;;0.75;;
69714;SDS011;56981;53.532;49.398;2022-09-09T14:40:55;0.73;;;0.63;;
69714;SDS011;56981;53.532;49.398;2022-09-09T14:43:21;0.90;;;0.80;;
69714;SDS011;56981;53.532;49.398;2022-09-09T14:45:47;1.70;;;0.88;;
69714;SDS011;56981;53.532;49.398;2022-09-09T14:48:14;1.35;;;0.70;;
69714;SDS011;56981;53.532;49.398;2022-09-09T14:50:40;1.52;;;0.90;;
69714;SDS011;56981;53.532;49.398;2022-09-09T14:53:07;0.82;;;0.60;;
69714;SDS011;56981;53.532;49.398;2022-09-09T14:55:34;0.80;;;0.80;;
69714;SDS011;56981;53.532;49.398;2022-09-09T14:58:00;1.73;;;0.80;;
69714;SDS011;56981;53.532;49.398;2022-09-09T15:00:26;1.25;;;0.80;;
69714;SDS011;56981;53.532;49.398;2022-09-09T15:02:53;1.80;;;0.90;;
69714;SDS011;56981;53.532;49.398;2022-09-09T15:05:23;2.60;;;0.80;;
69714;SDS011;56981;53.532;49.398;2022-09-09T15:07:49;1.63;;;0.60;;
69714;SDS011;56981;53.532;49.398;2022-09-09T15:10:16;1.85;;;0.90;;
69714;SDS011;56981;53.532;49.398;2022-09-09T15:12:42;0.65;;;0.65;;
69714;SDS011;56981;53.532;49.398;2022-09-09T15:15:09;0.68;;;0.60;;
69714;SDS011;56981;53.532;49.398;2022-09-09T15:17:36;2.83;;;0.80;;
69714;SDS011;56981;53.532;49.398;2022-09-09T15:20:05;0.85;;;0.55;;
69714;SDS011;56981;53.532;49.398;2022-09-09T15:22:31;1.98;;;0.70;;
69714;SDS011;56981;53.532;49.398;2022-09-09T15:24:58;4.22;;;0.88;;
69714;SDS011;56981;53.532;49.398;2022-09-09T15:27:24;2.38;;;0.80;;
69714;SDS011;56981;53.532;49.398;2022-09-09T15:29:50;0.90;;;0.70;;
69714;SDS011;56981;53.532;49.398;2022-09-09T15:32:17;2.03;;;1.00;;
69714;SDS011;56981;53.532;49.398;2022-09-09T15:34:43;1.55;;;0.90;;
69714;SDS011;56981;53.532;49.398;2022-09-09T15:37:10;2.10;;;1.13;;
69714;SDS011;56981;53.532;49.398;2022-09-09T15:39:39;1.33;;;0.93;;
69714;SDS011;56981;53.532;49.398;2022-09-09T15:42:06;1.63;;;1.02;;
69714;SDS011;56981;53.532;49.398;2022-09-09T15:44:40;1.48;;;0.80;;
69714;SDS011;56981;53.532;49.398;2022-09-09T15:47:07;2.75;;;0.70;;
69714;SDS011;56981;53.532;49.398;2022-09-09T15:49:36;4.38;;;2.80;;
69714;SDS011;56981;53.532;49.398;2022-09-09T15:52:02;2.20;;;1.05;;
69714;SDS011;56981;53.532;49.398;2022-09-09T15:54:34;1.63;;;1.13;;
69714;SDS011;56981;53.532;49.398;2022-09-09T15:57:05;1.02;;;0.93;;
69714;SDS011;56981;53.532;49.398;2022-09-09T15:59:32;2.70;;;1.00;;
69714;SDS011;56981;53.532;49.398;2022-09-09T16:01:59;1.10;;;0.95;;
69714;SDS011;56981;53.532;49.398;2022-09-09T16:04:26;1.27;;;0.55;;
69714;SDS011;56981;53.532;49.398;2022-09-09T16:06:58;1.08;;;0.70;;
69714;SDS011;56981;53.532;49.398;2022-09-09T16:09:26;0.77;;;0.40;;
69714;SDS011;56981;53.532;49.398;2022-09-09T16:11:55;1.02;;;0.63;;
69714;SDS011;56981;53.532;49.398;2022-09-09T16:14:23;0.52;;;0.50;;
69714;SDS011;56981;53.532;49.398;2022-09-09T16:16:51;0.60;;;0.52;;
69714;SDS011;56981;53.532;49.398;2022-09-09T16:19:17;1.77;;;0.50;;
69714;SDS011;56981;53.532;49.398;2022-09-09T16:21:45;1.10;;;0.40;;
69714;SDS011;56981;53.532;49.398;2022-09-09T16:24:14;0.82;;;0.60;;
69714;SDS011;56981;53.532;49.398;2022-09-09T16:26:43;0.82;;;0.60;;
69714;SDS011;56981;53.532;49.398;2022-09-09T16:29:13;0.70;;;0.57;;
69714;SDS011;56981;53.532;49.398;2022-09-09T16:31:41;1.25;;;0.40;;
69714;SDS011;56981;53.532;49.398;2022-09-09T16:34:07;0.75;;;0.70;;
69714;SDS011;56981;53.532;49.398;2022-09-09T16:36:35;0.95;;;0.40;;
69714;SDS011;56981;53.532;49.398;2022-09-09T16:39:05;0.88;;;0.50;;
69714;SDS011;56981;53.532;49.398;2022-09-09T16:41:34;1.27;;;0.50;;
69714;SDS011;56981;53.532;49.398;2022-09-09T16:44:05;2.85;;;0.50;;
69714;SDS011;56981;53.532;49.398;2022-09-09T16:46:34;3.88;;;0.63;;
69714;SDS011;56981;53.532;49.398;2022-09-09T16:49:02;0.85;;;0.50;;
69714;SDS011;56981;53.532;49.398;2022-09-09T16:51:31;2.15;;;0.60;;
69714;SDS011;56981;53.532;49.398;2022-09-09T16:54:06;1.42;;;0.40;;
69714;SDS011;56981;53.532;49.398;2022-09-09T16:56:35;1.17;;;0.50;;
69714;SDS011;56981;53.532;49.398;2022-09-09T16:59:06;0.50;;;0.50;;
69714;SDS011;56981;53.532;49.398;2022-09-09T17:01:38;1.63;;;0.60;;
69714;SDS011;56981;53.532;49.398;2022-09-09T17:04:16;2.22;;;0.55;;
69714;SDS011;56981;53.532;49.398;2022-09-09T17:06:46;0.65;;;0.47;;
69714;SDS011;56981;53.532;49.398;2022-09-09T17:09:14;0.57;;;0.35;;
69714;SDS011;56981;53.532;49.398;2022-09-09T17:11:41;0.73;;;0.50;;
69714;SDS011;56981;53.532;49.398;2022-09-09T17:14:08;0.80;;;0.50;;
69714;SDS011;56981;53.532;49.398;2022-09-09T17:16:36;1.77;;;0.85;;
69714;SDS011;56981;53.532;49.398;2022-09-09T17:19:05;0.47;;;0.40;;